sensor_id;sensor_type;location;lat;lon;timestamp;temperature;humidity
14008;DHT22;61651;45.508;12.232;2023-04-25T00:00:22;17.40;99.90
14008;DHT22;61651;45.508;12.232;2023-04-25T00:03:24;17.50;99.90
14008;DHT22;61651;45.508;12.232;2023-04-25T00:06:26;17.40;99.90
14008;DHT22;61651;45.508;12.232;2023-04-25T00:09:28;17.40;99.90
14008;DHT22;61651;45.508;12.232;2023-04-25T00:12:30;17.40;99.90
14008;DHT22;61651;45.508;12.232;2023-04-25T00:15:35;17.50;99.90
14008;DHT22;61651;45.508;12.232;2023-04-25T00:18:38;17.40;99.90
14008;DHT22;61651;45.508;12.232;2023-04-25T00:21:41;17.40;99.90
14008;DHT22;61651;45.508;12.232;2023-04-25T00:24:43;17.40;99.90
14008;DHT22;61651;45.508;12.232;2023-04-25T00:27:45;17.40;99.90
14008;DHT22;61651;45.508;12.232;2023-04-25T00:30:48;17.40;99.90
14008;DHT22;61651;45.508;12.232;2023-04-25T00:33:50;17.40;99.90
14008;DHT22;61651;45.508;12.232;2023-04-25T00:36:53;17.30;99.90
14008;DHT22;61651;45.508;12.232;2023-04-25T00:39:57;17.30;99.90
14008;DHT22;61651;45.508;12.232;2023-04-25T00:42:59;17.30;99.90
14008;DHT22;61651;45.508;12.232;2023-04-25T00:46:02;17.30;99.90
14008;DHT22;61651;45.508;12.232;2023-04-25T00:49:04;17.20;99.90
14008;DHT22;61651;45.508;12.232;2023-04-25T00:52:06;17.30;99.90
14008;DHT22;61651;45.508;12.232;2023-04-25T00:55:09;17.30;99.90
14008;DHT22;61651;45.508;12.232;2023-04-25T00:58:11;17.20;99.90
14008;DHT22;61651;45.508;12.232;2023-04-25T01:01:14;17.20;99.90
14008;DHT22;61651;45.508;12.232;2023-04-25T01:04:17;17.10;99.90
14008;DHT22;61651;45.508;12.232;2023-04-25T01:07:19;17.10;99.90
14008;DHT22;61651;45.508;12.232;2023-04-25T01:10:21;17.00;99.90
14008;DHT22;61651;45.508;12.232;2023-04-25T01:13:23;17.00;99.90
14008;DHT22;61651;45.508;12.232;2023-04-25T01:16:26;16.90;99.90
14008;DHT22;61651;45.508;12.232;2023-04-25T01:19:29;16.90;99.90
14008;DHT22;61651;45.508;12.232;2023-04-25T01:22:33;16.80;99.90
14008;DHT22;61651;45.508;12.232;2023-04-25T01:25:36;16.80;99.90
14008;DHT22;61651;45.508;12.232;2023-04-25T01:28:39;16.70;99.90
14008;DHT22;61651;45.508;12.232;2023-04-25T01:31:42;16.60;99.90
14008;DHT22;61651;45.508;12.232;2023-04-25T01:34:44;16.60;99.90
14008;DHT22;61651;45.508;12.232;2023-04-25T01:37:48;16.50;99.90
14008;DHT22;61651;45.508;12.232;2023-04-25T01:40:51;16.50;99.90
14008;DHT22;61651;45.508;12.232;2023-04-25T01:43:53;16.50;99.90
14008;DHT22;61651;45.508;12.232;2023-04-25T01:46:55;16.50;99.90
14008;DHT22;61651;45.508;12.232;2023-04-25T01:49:57;16.50;99.90
14008;DHT22;61651;45.508;12.232;2023-04-25T01:53:00;16.40;99.90
14008;DHT22;61651;45.508;12.232;2023-04-25T01:56:03;16.40;99.90
14008;DHT22;61651;45.508;12.232;2023-04-25T01:59:05;16.40;99.90
14008;DHT22;61651;45.508;12.232;2023-04-25T02:02:07;16.40;99.90
14008;DHT22;61651;45.508;12.232;2023-04-25T02:05:10;16.40;99.90
14008;DHT22;61651;45.508;12.232;2023-04-25T02:08:13;16.30;99.90
14008;DHT22;61651;45.508;12.232;2023-04-25T02:11:15;16.30;99.90
14008;DHT22;61651;45.508;12.232;2023-04-25T02:14:17;16.30;99.90
14008;DHT22;61651;45.508;12.232;2023-04-25T02:17:19;16.30;99.90
14008;DHT22;61651;45.508;12.232;2023-04-25T02:20:22;16.30;99.90
14008;DHT22;61651;45.508;12.232;2023-04-25T02:23:26;16.30;99.90
14008;DHT22;61651;45.508;12.232;2023-04-25T02:26:28;16.30;99.90
14008;DHT22;61651;45.508;12.232;2023-04-25T02:29:30;16.40;99.90
14008;DHT22;61651;45.508;12.232;2023-04-25T02:32:32;16.30;99.90
14008;DHT22;61651;45.508;12.232;2023-04-25T02:35:34;16.30;99.90
14008;DHT22;61651;45.508;12.232;2023-04-25T02:38:38;16.20;99.90
14008;DHT22;61651;45.508;12.232;2023-04-25T02:41:40;16.20;99.90
14008;DHT22;61651;45.508;12.232;2023-04-25T02:44:42;16.20;99.90
14008;DHT22;61651;45.508;12.232;2023-04-25T02:47:44;16.30;99.90
14008;DHT22;61651;45.508;12.232;2023-04-25T02:50:46;16.10;99.90
14008;DHT22;61651;45.508;12.232;2023-04-25T02:53:49;16.10;99.90
14008;DHT22;61651;45.508;12.232;2023-04-25T02:56:51;16.20;99.90
14008;DHT22;61651;45.508;12.232;2023-04-25T02:59:53;16.20;99.90
14008;DHT22;61651;45.508;12.232;2023-04-25T03:02:55;16.20;99.90
14008;DHT22;61651;45.508;12.232;2023-04-25T03:05:57;16.10;99.90
14008;DHT22;61651;45.508;12.232;2023-04-25T03:09:00;16.20;99.90
14008;DHT22;61651;45.508;12.232;2023-04-25T03:12:02;16.20;99.90
14008;DHT22;61651;45.508;12.232;2023-04-25T03:15:05;16.30;99.90
14008;DHT22;61651;45.508;12.232;2023-04-25T03:18:07;16.30;99.90
14008;DHT22;61651;45.508;12.232;2023-04-25T03:21:09;16.30;99.90
14008;DHT22;61651;45.508;12.232;2023-04-25T03:24:12;16.30;99.90
14008;DHT22;61651;45.508;12.232;2023-04-25T03:27:14;16.40;99.90
14008;DHT22;61651;45.508;12.232;2023-04-25T03:30:16;16.30;99.90
14008;DHT22;61651;45.508;12.232;2023-04-25T03:33:18;16.40;99.90
14008;DHT22;61651;45.508;12.232;2023-04-25T03:36:20;16.30;99.90
14008;DHT22;61651;45.508;12.232;2023-04-25T03:39:24;16.30;99.90
14008;DHT22;61651;45.508;12.232;2023-04-25T03:42:25;16.30;99.90
14008;DHT22;61651;45.508;12.232;2023-04-25T03:45:27;16.20;99.90
14008;DHT22;61651;45.508;12.232;2023-04-25T03:48:29;16.20;99.90
14008;DHT22;61651;45.508;12.232;2023-04-25T03:51:31;16.20;99.90
14008;DHT22;61651;45.508;12.232;2023-04-25T03:54:35;16.20;99.90
14008;DHT22;61651;45.508;12.232;2023-04-25T03:57:37;16.30;99.90
14008;DHT22;61651;45.508;12.232;2023-04-25T04:00:39;16.30;99.90
14008;DHT22;61651;45.508;12.232;2023-04-25T04:03:41;16.30;99.90
14008;DHT22;61651;45.508;12.232;2023-04-25T04:06:42;16.30;99.90
14008;DHT22;61651;45.508;12.232;2023-04-25T04:09:46;16.30;99.90
14008;DHT22;61651;45.508;12.232;2023-04-25T04:12:48;16.30;99.90
14008;DHT22;61651;45.508;12.232;2023-04-25T04:15:50;16.40;99.90
14008;DHT22;61651;45.508;12.232;2023-04-25T04:18:52;16.40;99.90
14008;DHT22;61651;45.508;12.232;2023-04-25T04:21:54;16.30;99.90
14008;DHT22;61651;45.508;12.232;2023-04-25T04:24:57;16.30;99.90
14008;DHT22;61651;45.508;12.232;2023-04-25T04:27:59;16.30;99.90
14008;DHT22;61651;45.508;12.232;2023-04-25T04:31:01;16.30;99.90
14008;DHT22;61651;45.508;12.232;2023-04-25T04:34:04;16.20;99.90
14008;DHT22;61651;45.508;12.232;2023-04-25T04:37:06;16.20;99.90
14008;DHT22;61651;45.508;12.232;2023-04-25T04:40:10;16.10;99.90
14008;DHT22;61651;45.508;12.232;2023-04-25T04:43:12;16.00;99.90
14008;DHT22;61651;45.508;12.232;2023-04-25T04:46:17;16.00;99.90
14008;DHT22;61651;45.508;12.232;2023-04-25T04:49:21;16.00;99.90
14008;DHT22;61651;45.508;12.232;2023-04-25T04:52:23;16.10;99.90
14008;DHT22;61651;45.508;12.232;2023-04-25T04:55:26;16.10;99.90
14008;DHT22;61651;45.508;12.232;2023-04-25T04:58:28;16.10;99.90
14008;DHT22;61651;45.508;12.232;2023-04-25T05:01:31;16.10;99.90
14008;DHT22;61651;45.508;12.232;2023-04-25T05:04:33;16.10;99.90
14008;DHT22;61651;45.508;12.232;2023-04-25T05:07:35;16.20;99.90
14008;DHT22;61651;45.508;12.232;2023-04-25T05:10:38;16.20;99.90
14008;DHT22;61651;45.508;12.232;2023-04-25T05:13:40;16.20;99.90
14008;DHT22;61651;45.508;12.232;2023-04-25T05:16:42;16.20;99.90
14008;DHT22;61651;45.508;12.232;2023-04-25T05:19:44;16.20;99.90
14008;DHT22;61651;45.508;12.232;2023-04-25T05:22:46;16.20;99.90
14008;DHT22;61651;45.508;12.232;2023-04-25T05:25:49;16.10;99.90
14008;DHT22;61651;45.508;12.232;2023-04-25T05:28:52;16.00;99.90
14008;DHT22;61651;45.508;12.232;2023-04-25T05:31:53;15.70;99.90
14008;DHT22;61651;45.508;12.232;2023-04-25T05:34:55;15.60;99.90
14008;DHT22;61651;45.508;12.232;2023-04-25T05:37:57;15.50;99.90
14008;DHT22;61651;45.508;12.232;2023-04-25T05:41:01;15.20;99.90
14008;DHT22;61651;45.508;12.232;2023-04-25T05:44:03;15.40;99.90
14008;DHT22;61651;45.508;12.232;2023-04-25T05:47:05;15.50;99.90
14008;DHT22;61651;45.508;12.232;2023-04-25T05:50:08;15.70;99.90
14008;DHT22;61651;45.508;12.232;2023-04-25T05:53:10;15.80;99.90
14008;DHT22;61651;45.508;12.232;2023-04-25T05:56:13;15.90;99.90
14008;DHT22;61651;45.508;12.232;2023-04-25T05:59:15;16.00;99.90
14008;DHT22;61651;45.508;12.232;2023-04-25T06:02:19;16.00;99.90
14008;DHT22;61651;45.508;12.232;2023-04-25T06:05:21;16.00;99.90
14008;DHT22;61651;45.508;12.232;2023-04-25T06:08:23;16.00;99.90
14008;DHT22;61651;45.508;12.232;2023-04-25T06:11:26;16.10;99.90
14008;DHT22;61651;45.508;12.232;2023-04-25T06:14:28;16.10;99.90
14008;DHT22;61651;45.508;12.232;2023-04-25T06:17:31;16.10;99.90
14008;DHT22;61651;45.508;12.232;2023-04-25T06:20:32;16.00;99.90
14008;DHT22;61651;45.508;12.232;2023-04-25T06:23:34;15.60;99.90
14008;DHT22;61651;45.508;12.232;2023-04-25T06:26:38;15.50;99.90
14008;DHT22;61651;45.508;12.232;2023-04-25T06:29:40;15.60;99.90
14008;DHT22;61651;45.508;12.232;2023-04-25T06:32:42;15.70;99.90
14008;DHT22;61651;45.508;12.232;2023-04-25T06:35:44;15.80;99.90
14008;DHT22;61651;45.508;12.232;2023-04-25T06:38:46;16.00;99.90
14008;DHT22;61651;45.508;12.232;2023-04-25T06:41:49;16.10;99.90
14008;DHT22;61651;45.508;12.232;2023-04-25T06:44:51;16.10;99.90
14008;DHT22;61651;45.508;12.232;2023-04-25T06:47:53;16.10;99.90
14008;DHT22;61651;45.508;12.232;2023-04-25T06:50:55;16.10;99.90
14008;DHT22;61651;45.508;12.232;2023-04-25T06:53:57;16.10;99.90
14008;DHT22;61651;45.508;12.232;2023-04-25T06:57:01;16.10;99.90
14008;DHT22;61651;45.508;12.232;2023-04-25T07:00:04;16.20;99.90
14008;DHT22;61651;45.508;12.232;2023-04-25T07:03:09;16.10;99.90
14008;DHT22;61651;45.508;12.232;2023-04-25T07:06:11;16.10;99.90
14008;DHT22;61651;45.508;12.232;2023-04-25T07:09:13;16.10;99.90
14008;DHT22;61651;45.508;12.232;2023-04-25T07:12:16;16.00;99.90
14008;DHT22;61651;45.508;12.232;2023-04-25T07:15:18;16.10;99.90
14008;DHT22;61651;45.508;12.232;2023-04-25T07:18:20;16.00;99.90
14008;DHT22;61651;45.508;12.232;2023-04-25T07:21:22;16.00;99.90
14008;DHT22;61651;45.508;12.232;2023-04-25T07:24:24;16.00;99.90
14008;DHT22;61651;45.508;12.232;2023-04-25T07:27:27;16.00;99.90
14008;DHT22;61651;45.508;12.232;2023-04-25T07:30:30;16.00;99.90
14008;DHT22;61651;45.508;12.232;2023-04-25T07:33:32;15.80;99.90
14008;DHT22;61651;45.508;12.232;2023-04-25T07:36:33;15.80;99.90
14008;DHT22;61651;45.508;12.232;2023-04-25T07:39:35;15.90;99.90
14008;DHT22;61651;45.508;12.232;2023-04-25T07:42:39;15.90;99.90
14008;DHT22;61651;45.508;12.232;2023-04-25T07:45:41;16.00;99.90
14008;DHT22;61651;45.508;12.232;2023-04-25T07:48:43;15.90;99.90
14008;DHT22;61651;45.508;12.232;2023-04-25T07:51:45;15.90;99.90
14008;DHT22;61651;45.508;12.232;2023-04-25T07:54:47;16.00;99.90
14008;DHT22;61651;45.508;12.232;2023-04-25T07:57:50;16.10;99.90
14008;DHT22;61651;45.508;12.232;2023-04-25T08:00:53;16.10;99.90
14008;DHT22;61651;45.508;12.232;2023-04-25T08:03:54;16.10;99.90
14008;DHT22;61651;45.508;12.232;2023-04-25T08:06:56;16.10;99.90
14008;DHT22;61651;45.508;12.232;2023-04-25T08:09:58;16.10;99.90
14008;DHT22;61651;45.508;12.232;2023-04-25T08:13:02;16.10;99.90
14008;DHT22;61651;45.508;12.232;2023-04-25T08:16:04;16.10;99.90
14008;DHT22;61651;45.508;12.232;2023-04-25T08:19:06;16.10;99.90
14008;DHT22;61651;45.508;12.232;2023-04-25T08:22:08;16.10;99.90
14008;DHT22;61651;45.508;12.232;2023-04-25T08:25:10;16.10;99.90
14008;DHT22;61651;45.508;12.232;2023-04-25T08:28:14;16.10;99.90
14008;DHT22;61651;45.508;12.232;2023-04-25T08:31:17;16.00;99.90
14008;DHT22;61651;45.508;12.232;2023-04-25T08:34:19;16.00;99.90
14008;DHT22;61651;45.508;12.232;2023-04-25T08:37:21;15.90;99.90
14008;DHT22;61651;45.508;12.232;2023-04-25T08:40:23;15.90;99.90
14008;DHT22;61651;45.508;12.232;2023-04-25T08:43:30;15.90;99.90
14008;DHT22;61651;45.508;12.232;2023-04-25T08:46:32;15.90;99.90
14008;DHT22;61651;45.508;12.232;2023-04-25T08:49:35;15.90;99.90
14008;DHT22;61651;45.508;12.232;2023-04-25T08:52:43;15.80;99.90
14008;DHT22;61651;45.508;12.232;2023-04-25T08:55:46;15.50;99.90
14008;DHT22;61651;45.508;12.232;2023-04-25T08:58:49;15.50;99.90
14008;DHT22;61651;45.508;12.232;2023-04-25T09:01:51;15.20;99.90
14008;DHT22;61651;45.508;12.232;2023-04-25T09:04:54;15.00;99.90
14008;DHT22;61651;45.508;12.232;2023-04-25T09:07:56;14.80;99.90
14008;DHT22;61651;45.508;12.232;2023-04-25T09:10:58;14.90;99.90
14008;DHT22;61651;45.508;12.232;2023-04-25T09:14:16;15.10;99.90
14008;DHT22;61651;45.508;12.232;2023-04-25T09:17:18;15.40;99.90
14008;DHT22;61651;45.508;12.232;2023-04-25T09:20:20;15.60;99.90
14008;DHT22;61651;45.508;12.232;2023-04-25T09:23:22;15.80;99.90
14008;DHT22;61651;45.508;12.232;2023-04-25T09:26:26;15.90;99.90
14008;DHT22;61651;45.508;12.232;2023-04-25T09:29:33;15.90;99.90
14008;DHT22;61651;45.508;12.232;2023-04-25T09:32:35;15.90;99.90
14008;DHT22;61651;45.508;12.232;2023-04-25T09:35:38;15.90;99.90
14008;DHT22;61651;45.508;12.232;2023-04-25T09:38:41;16.00;99.90
14008;DHT22;61651;45.508;12.232;2023-04-25T09:41:44;16.10;99.90
14008;DHT22;61651;45.508;12.232;2023-04-25T09:44:47;16.10;99.90
14008;DHT22;61651;45.508;12.232;2023-04-25T09:47:49;16.00;99.90
14008;DHT22;61651;45.508;12.232;2023-04-25T09:51:04;16.00;99.90
14008;DHT22;61651;45.508;12.232;2023-04-25T09:54:06;16.00;99.90
14008;DHT22;61651;45.508;12.232;2023-04-25T09:57:11;16.00;99.90
14008;DHT22;61651;45.508;12.232;2023-04-25T10:00:15;16.00;99.90
14008;DHT22;61651;45.508;12.232;2023-04-25T10:03:18;15.90;99.90
14008;DHT22;61651;45.508;12.232;2023-04-25T10:06:22;15.70;99.90
14008;DHT22;61651;45.508;12.232;2023-04-25T10:09:26;15.60;99.90
14008;DHT22;61651;45.508;12.232;2023-04-25T10:12:33;15.60;99.90
14008;DHT22;61651;45.508;12.232;2023-04-25T10:15:36;15.70;99.90
14008;DHT22;61651;45.508;12.232;2023-04-25T10:18:39;15.80;99.90
14008;DHT22;61651;45.508;12.232;2023-04-25T10:21:48;15.90;99.90
14008;DHT22;61651;45.508;12.232;2023-04-25T10:24:52;15.90;99.90
14008;DHT22;61651;45.508;12.232;2023-04-25T10:27:54;16.10;99.90
14008;DHT22;61651;45.508;12.232;2023-04-25T10:31:02;16.30;99.90
14008;DHT22;61651;45.508;12.232;2023-04-25T10:34:04;16.50;99.90
14008;DHT22;61651;45.508;12.232;2023-04-25T10:37:09;16.70;99.90
14008;DHT22;61651;45.508;12.232;2023-04-25T10:40:12;16.90;99.90
14008;DHT22;61651;45.508;12.232;2023-04-25T10:43:34;17.00;99.90
14008;DHT22;61651;45.508;12.232;2023-04-25T10:46:38;17.20;99.90
14008;DHT22;61651;45.508;12.232;2023-04-25T10:49:42;17.30;99.90
14008;DHT22;61651;45.508;12.232;2023-04-25T10:52:44;17.50;99.90
14008;DHT22;61651;45.508;12.232;2023-04-25T10:55:49;17.60;99.90
14008;DHT22;61651;45.508;12.232;2023-04-25T10:58:52;17.70;99.90
14008;DHT22;61651;45.508;12.232;2023-04-25T11:02:12;17.80;99.90
14008;DHT22;61651;45.508;12.232;2023-04-25T11:05:22;17.90;99.90
14008;DHT22;61651;45.508;12.232;2023-04-25T11:08:36;18.00;99.90
14008;DHT22;61651;45.508;12.232;2023-04-25T11:11:40;18.10;99.90
14008;DHT22;61651;45.508;12.232;2023-04-25T11:14:42;18.20;99.90
14008;DHT22;61651;45.508;12.232;2023-04-25T11:17:45;18.30;99.90
14008;DHT22;61651;45.508;12.232;2023-04-25T11:20:48;18.40;99.90
14008;DHT22;61651;45.508;12.232;2023-04-25T11:23:51;18.60;99.90
14008;DHT22;61651;45.508;12.232;2023-04-25T11:26:54;18.70;99.90
14008;DHT22;61651;45.508;12.232;2023-04-25T11:29:56;18.70;99.90
14008;DHT22;61651;45.508;12.232;2023-04-25T11:32:59;18.80;99.90
14008;DHT22;61651;45.508;12.232;2023-04-25T11:36:03;18.90;99.90
14008;DHT22;61651;45.508;12.232;2023-04-25T11:39:07;18.90;99.90
14008;DHT22;61651;45.508;12.232;2023-04-25T11:42:09;19.10;99.90
14008;DHT22;61651;45.508;12.232;2023-04-25T11:45:11;19.10;99.90
14008;DHT22;61651;45.508;12.232;2023-04-25T11:48:14;19.20;99.90
14008;DHT22;61651;45.508;12.232;2023-04-25T11:51:16;19.30;99.90
14008;DHT22;61651;45.508;12.232;2023-04-25T11:54:18;19.30;99.90
14008;DHT22;61651;45.508;12.232;2023-04-25T11:57:20;19.30;99.90
14008;DHT22;61651;45.508;12.232;2023-04-25T12:00:24;19.40;99.90
14008;DHT22;61651;45.508;12.232;2023-04-25T12:03:30;19.50;99.90
14008;DHT22;61651;45.508;12.232;2023-04-25T12:06:37;19.70;99.90
14008;DHT22;61651;45.508;12.232;2023-04-25T12:09:40;19.80;99.90
14008;DHT22;61651;45.508;12.232;2023-04-25T12:12:43;19.80;99.90
14008;DHT22;61651;45.508;12.232;2023-04-25T12:15:45;19.90;99.90
14008;DHT22;61651;45.508;12.232;2023-04-25T12:18:51;20.00;99.90
14008;DHT22;61651;45.508;12.232;2023-04-25T12:21:53;20.20;99.90
14008;DHT22;61651;45.508;12.232;2023-04-25T12:24:55;20.20;99.90
14008;DHT22;61651;45.508;12.232;2023-04-25T12:28:09;20.10;99.90
14008;DHT22;61651;45.508;12.232;2023-04-25T12:31:12;20.10;99.90
14008;DHT22;61651;45.508;12.232;2023-04-25T12:34:17;20.20;99.90
14008;DHT22;61651;45.508;12.232;2023-04-25T12:37:21;20.40;99.90
14008;DHT22;61651;45.508;12.232;2023-04-25T12:40:23;20.60;99.90
14008;DHT22;61651;45.508;12.232;2023-04-25T12:43:26;20.80;99.90
14008;DHT22;61651;45.508;12.232;2023-04-25T12:46:28;21.00;99.90
14008;DHT22;61651;45.508;12.232;2023-04-25T12:49:31;21.10;99.90
14008;DHT22;61651;45.508;12.232;2023-04-25T12:52:33;21.20;99.90
14008;DHT22;61651;45.508;12.232;2023-04-25T12:55:35;21.40;99.90
14008;DHT22;61651;45.508;12.232;2023-04-25T12:58:37;21.30;99.90
14008;DHT22;61651;45.508;12.232;2023-04-25T13:01:39;21.20;99.90
14008;DHT22;61651;45.508;12.232;2023-04-25T13:04:42;21.00;99.90
14008;DHT22;61651;45.508;12.232;2023-04-25T13:07:44;20.60;99.90
14008;DHT22;61651;45.508;12.232;2023-04-25T13:10:47;20.80;99.90
14008;DHT22;61651;45.508;12.232;2023-04-25T13:13:49;21.20;99.90
14008;DHT22;61651;45.508;12.232;2023-04-25T13:16:51;21.60;99.90
14008;DHT22;61651;45.508;12.232;2023-04-25T13:19:55;21.90;99.90
14008;DHT22;61651;45.508;12.232;2023-04-25T13:22:57;22.00;99.90
14008;DHT22;61651;45.508;12.232;2023-04-25T13:25:59;21.90;99.90
14008;DHT22;61651;45.508;12.232;2023-04-25T13:29:02;21.70;99.90
14008;DHT22;61651;45.508;12.232;2023-04-25T13:32:04;21.50;99.90
14008;DHT22;61651;45.508;12.232;2023-04-25T13:35:09;21.40;99.90
14008;DHT22;61651;45.508;12.232;2023-04-25T13:38:12;21.40;99.90
14008;DHT22;61651;45.508;12.232;2023-04-25T13:41:14;21.40;99.90
14008;DHT22;61651;45.508;12.232;2023-04-25T13:44:19;21.40;99.90
14008;DHT22;61651;45.508;12.232;2023-04-25T13:47:21;21.50;99.90
14008;DHT22;61651;45.508;12.232;2023-04-25T13:50:25;21.50;99.90
14008;DHT22;61651;45.508;12.232;2023-04-25T13:53:27;21.50;99.90
14008;DHT22;61651;45.508;12.232;2023-04-25T13:56:28;21.50;99.90
14008;DHT22;61651;45.508;12.232;2023-04-25T13:59:30;21.40;99.90
14008;DHT22;61651;45.508;12.232;2023-04-25T14:02:33;21.40;99.90
14008;DHT22;61651;45.508;12.232;2023-04-25T14:05:36;21.40;99.90
14008;DHT22;61651;45.508;12.232;2023-04-25T14:08:39;21.30;99.90
14008;DHT22;61651;45.508;12.232;2023-04-25T14:11:41;21.30;99.90
14008;DHT22;61651;45.508;12.232;2023-04-25T14:14:43;21.20;99.90
14008;DHT22;61651;45.508;12.232;2023-04-25T14:17:45;21.20;99.90
14008;DHT22;61651;45.508;12.232;2023-04-25T14:20:50;21.20;99.90
14008;DHT22;61651;45.508;12.232;2023-04-25T14:24:03;21.20;99.90
14008;DHT22;61651;45.508;12.232;2023-04-25T14:27:07;21.40;99.90
14008;DHT22;61651;45.508;12.232;2023-04-25T14:30:09;21.60;99.90
14008;DHT22;61651;45.508;12.232;2023-04-25T14:33:12;21.80;99.90
14008;DHT22;61651;45.508;12.232;2023-04-25T14:36:14;21.90;99.90
14008;DHT22;61651;45.508;12.232;2023-04-25T14:39:17;22.10;99.90
14008;DHT22;61651;45.508;12.232;2023-04-25T14:42:19;22.20;99.90
14008;DHT22;61651;45.508;12.232;2023-04-25T14:45:21;22.20;99.90
14008;DHT22;61651;45.508;12.232;2023-04-25T14:48:23;22.00;99.90
14008;DHT22;61651;45.508;12.232;2023-04-25T14:51:25;21.90;99.90
14008;DHT22;61651;45.508;12.232;2023-04-25T14:54:29;21.70;99.90
14008;DHT22;61651;45.508;12.232;2023-04-25T14:57:31;21.40;99.90
14008;DHT22;61651;45.508;12.232;2023-04-25T15:00:33;21.20;99.90
14008;DHT22;61651;45.508;12.232;2023-04-25T15:03:36;21.10;99.90
14008;DHT22;61651;45.508;12.232;2023-04-25T15:06:37;20.90;99.90
14008;DHT22;61651;45.508;12.232;2023-04-25T15:09:41;20.80;99.90
14008;DHT22;61651;45.508;12.232;2023-04-25T15:12:43;20.70;99.90
14008;DHT22;61651;45.508;12.232;2023-04-25T15:15:45;20.50;99.90
14008;DHT22;61651;45.508;12.232;2023-04-25T15:18:51;20.50;99.90
14008;DHT22;61651;45.508;12.232;2023-04-25T15:21:53;20.40;99.90
14008;DHT22;61651;45.508;12.232;2023-04-25T15:24:57;20.40;99.90
14008;DHT22;61651;45.508;12.232;2023-04-25T15:27:59;20.20;99.90
14008;DHT22;61651;45.508;12.232;2023-04-25T15:31:01;20.20;99.90
14008;DHT22;61651;45.508;12.232;2023-04-25T15:34:03;20.20;99.90
14008;DHT22;61651;45.508;12.232;2023-04-25T15:37:05;20.30;99.90
14008;DHT22;61651;45.508;12.232;2023-04-25T15:40:11;20.40;99.90
14008;DHT22;61651;45.508;12.232;2023-04-25T15:43:13;20.80;99.90
14008;DHT22;61651;45.508;12.232;2023-04-25T15:46:16;21.10;99.90
14008;DHT22;61651;45.508;12.232;2023-04-25T15:49:18;21.10;99.90
14008;DHT22;61651;45.508;12.232;2023-04-25T15:52:21;21.10;99.90
14008;DHT22;61651;45.508;12.232;2023-04-25T15:55:24;21.00;99.90
14008;DHT22;61651;45.508;12.232;2023-04-25T15:58:27;20.80;99.90
14008;DHT22;61651;45.508;12.232;2023-04-25T16:01:29;20.40;99.90
14008;DHT22;61651;45.508;12.232;2023-04-25T16:04:31;20.30;99.90
14008;DHT22;61651;45.508;12.232;2023-04-25T16:07:35;20.20;99.90
14008;DHT22;61651;45.508;12.232;2023-04-25T16:10:38;19.90;99.90
14008;DHT22;61651;45.508;12.232;2023-04-25T16:13:40;19.70;99.90
14008;DHT22;61651;45.508;12.232;2023-04-25T16:16:42;19.80;99.90
14008;DHT22;61651;45.508;12.232;2023-04-25T16:19:44;19.80;99.90
14008;DHT22;61651;45.508;12.232;2023-04-25T16:22:46;19.80;99.90
14008;DHT22;61651;45.508;12.232;2023-04-25T16:25:49;19.70;99.90
14008;DHT22;61651;45.508;12.232;2023-04-25T16:28:51;19.20;99.90
14008;DHT22;61651;45.508;12.232;2023-04-25T16:31:53;18.50;99.90
14008;DHT22;61651;45.508;12.232;2023-04-25T16:34:56;18.60;99.90
14008;DHT22;61651;45.508;12.232;2023-04-25T16:37:57;18.80;99.90
14008;DHT22;61651;45.508;12.232;2023-04-25T16:41:01;18.70;99.90
14008;DHT22;61651;45.508;12.232;2023-04-25T16:44:03;18.90;99.90
14008;DHT22;61651;45.508;12.232;2023-04-25T16:47:06;18.50;99.90
14008;DHT22;61651;45.508;12.232;2023-04-25T16:50:08;18.50;99.90
14008;DHT22;61651;45.508;12.232;2023-04-25T16:53:11;18.70;99.90
14008;DHT22;61651;45.508;12.232;2023-04-25T16:56:14;18.90;99.90
14008;DHT22;61651;45.508;12.232;2023-04-25T16:59:16;19.00;99.90
14008;DHT22;61651;45.508;12.232;2023-04-25T17:02:18;19.00;99.90
14008;DHT22;61651;45.508;12.232;2023-04-25T17:05:20;19.10;99.90
14008;DHT22;61651;45.508;12.232;2023-04-25T17:08:22;18.70;99.90
14008;DHT22;61651;45.508;12.232;2023-04-25T17:11:26;18.80;99.90
14008;DHT22;61651;45.508;12.232;2023-04-25T17:14:27;18.90;99.90
14008;DHT22;61651;45.508;12.232;2023-04-25T17:17:29;18.40;99.90
14008;DHT22;61651;45.508;12.232;2023-04-25T17:20:31;18.00;99.90
14008;DHT22;61651;45.508;12.232;2023-04-25T17:23:33;17.50;99.90
14008;DHT22;61651;45.508;12.232;2023-04-25T17:26:37;17.70;99.90
14008;DHT22;61651;45.508;12.232;2023-04-25T17:29:39;17.90;99.90
14008;DHT22;61651;45.508;12.232;2023-04-25T17:32:41;18.10;99.90
14008;DHT22;61651;45.508;12.232;2023-04-25T17:35:43;18.20;99.90
14008;DHT22;61651;45.508;12.232;2023-04-25T17:38:45;18.10;99.90
14008;DHT22;61651;45.508;12.232;2023-04-25T17:41:49;17.70;99.90
14008;DHT22;61651;45.508;12.232;2023-04-25T17:44:51;17.80;99.90
14008;DHT22;61651;45.508;12.232;2023-04-25T17:47:54;17.80;99.90
14008;DHT22;61651;45.508;12.232;2023-04-25T17:50:56;17.70;99.90
14008;DHT22;61651;45.508;12.232;2023-04-25T17:53:58;17.80;99.90
14008;DHT22;61651;45.508;12.232;2023-04-25T17:57:02;17.80;99.90
14008;DHT22;61651;45.508;12.232;2023-04-25T18:00:06;17.80;99.90
14008;DHT22;61651;45.508;12.232;2023-04-25T18:03:09;17.80;99.90
14008;DHT22;61651;45.508;12.232;2023-04-25T18:06:11;17.80;99.90
14008;DHT22;61651;45.508;12.232;2023-04-25T18:09:13;17.80;99.90
14008;DHT22;61651;45.508;12.232;2023-04-25T18:12:24;17.80;99.90
14008;DHT22;61651;45.508;12.232;2023-04-25T18:15:26;17.80;99.90
14008;DHT22;61651;45.508;12.232;2023-04-25T18:18:29;17.70;99.90
14008;DHT22;61651;45.508;12.232;2023-04-25T18:21:33;17.70;99.90
14008;DHT22;61651;45.508;12.232;2023-04-25T18:24:35;17.70;99.90
14008;DHT22;61651;45.508;12.232;2023-04-25T18:27:40;17.60;99.90
14008;DHT22;61651;45.508;12.232;2023-04-25T18:30:42;17.50;99.90
14008;DHT22;61651;45.508;12.232;2023-04-25T18:33:44;17.40;99.90
14008;DHT22;61651;45.508;12.232;2023-04-25T18:36:46;17.40;99.90
14008;DHT22;61651;45.508;12.232;2023-04-25T18:39:48;17.00;99.90
14008;DHT22;61651;45.508;12.232;2023-04-25T18:42:51;16.40;99.90
14008;DHT22;61651;45.508;12.232;2023-04-25T18:45:53;15.90;99.90
14008;DHT22;61651;45.508;12.232;2023-04-25T18:48:55;15.80;99.90
14008;DHT22;61651;45.508;12.232;2023-04-25T18:51:57;16.10;99.90
14008;DHT22;61651;45.508;12.232;2023-04-25T18:54:59;16.40;99.90